Flight Track Log - Related Links

Times and Time Zones

All times are in EDT time to prevent confusion due to time zone crossing. See the AWI3551 flight status page for this flight to view local times or setup timezone preferences in your user account.


Time Position Orientation Groundspeed Altitude Reporting Facility
EDT Latitude Longitude Course Direction KTS MPH feet Rate Location/Type
Sat 08:12:05 AM 42.7236 -73.8108 122° Southeast 160 184 1,400  Level Boston Center
Sat 08:13:12 AM 42.7414 -73.8733 291° West 211 243 3,500 1,843 Climbing Boston Center
Sat 08:14:00 AM 42.5253 -74.0007 171° South  Level Estimated
Sat 08:14:25 AM 42.8094 -73.9458 322° Northwest 258 297 5,700  Level Boston Center
Sat 08:15:00 AM 42.4506 -74.0667 180° South  Level Estimated
Sat 08:15:25 AM 42.8647 -74.0150 317° Northwest 273 314 8,300  Level Boston Center
Sat 08:16:00 AM 42.3759 -74.1324 172° South  Level Estimated
Sat 08:16:25 AM 42.9031 -74.1039 301° West 268 308 10,600  Level Boston Center
Sat 08:17:00 AM 42.3285 -74.0302 122° Southeast  Level FlightAware Approximate
Sat 08:17:37 AM 42.8786 -74.2081 252° West 256 295 12,100  Level Boston Center
Sat 08:18:37 AM 42.7997 -74.1775 164° South 228 262 13,500 1,400 Climbing Boston Center
Sat 08:19:37 AM 42.7047 -74.1211 156° South 312 359 14,900 1,350 Climbing Boston Center
Sat 08:20:37 AM 42.6158 -74.0764 160° South 335 386 16,200 1,450 Climbing Boston Center
Sat 08:21:37 AM 42.5208 -74.0203 156° South 358 412 17,800 1,550 Climbing Boston Center
Sat 08:22:37 AM 42.4275 -73.9703 158° South 370 426 19,300 1,300 Climbing Boston Center
Sat 08:23:37 AM 42.3303 -73.9172 158° South 370 426 20,400 1,300 Climbing Boston Center
Sat 08:24:37 AM 42.2289 -73.8617 158° South 375 432 21,900 1,300 Climbing Boston Center
Sat 08:25:37 AM 42.1275 -73.8033 157° South 386 444 23,000 1,150 Climbing Boston Center
Sat 08:26:37 AM 42.0303 -73.7508 158° South 406 467 24,200 1,300 Climbing Boston Center
Sat 08:27:37 AM 41.9267 -73.6931 157° South 411 473 25,600 900 Climbing Boston Center
Sat 08:28:37 AM 41.8231 -73.6381 158° South 411 473 26,000 650 Climbing Boston Center
Sat 08:29:37 AM 41.7144 -73.6553 187° South 387 445 26,900 950 Climbing Boston Center
Sat 08:30:37 AM 41.6142 -73.6842 192° South 382 440 27,900 496 Climbing Boston Center
Sat 08:31:50 AM 41.5044 -73.7767 212° Southwest 350 403 28,000 45 Climbing New York Center
Sat 08:32:49 AM 41.4128 -73.8556 213° Southwest 378 435 28,000  Level New York Center
Sat 08:33:50 AM 41.3211 -73.9397 215° Southwest 398 458 28,000  Level New York Center
Sat 08:34:50 AM 41.2208 -74.0289 214° Southwest 413 475 28,000  Level New York Center
Sat 08:35:48 AM 41.1225 -74.1150 213° Southwest 425 489 28,000  Level New York Center
Sat 08:36:49 AM 41.0267 -74.1925 211° Southwest 443 510 28,000  Level New York Center
Sat 08:37:50 AM 40.9325 -74.2758 214° Southwest 443 510 28,000  Level New York Center
Sat 08:38:49 AM 40.8428 -74.3506 212° Southwest 418 481 28,000  Level New York Center
Sat 08:39:51 AM 40.7672 -74.4397 222° Southwest 390 449 28,000  Level New York Center
Sat 08:40:49 AM 40.7056 -74.5433 232° Southwest 367 422 28,000  Level New York Center
Sat 08:41:50 AM 40.6417 -74.6492 232° Southwest 367 422 28,000 -50 Level New York Center
Sat 08:42:49 AM 40.5758 -74.7519 230° Southwest 367 422 27,900 -807 Descending New York Center
Sat 08:43:49 AM 40.5014 -74.8542 226° Southwest 378 435 26,400 -1,500 Descending New York Center
Sat 08:44:49 AM 40.4267 -74.9642 228° Southwest 390 449 24,900 -1,475 Descending New York Center
Sat 08:45:51 AM 40.3497 -75.0739 227° Southwest 403 464 23,400 -1,450 Descending New York Center
Sat 08:46:49 AM 40.2794 -75.1731 227° Southwest 398 458 22,000 -712 Descending New York Center
Sat 08:47:49 AM 40.2089 -75.2744 228° Southwest 386 444 22,000  Level New York Center
Sat 08:48:50 AM 40.1406 -75.3678 226° Southwest 380 437 22,000  Level New York Center
Sat 08:49:51 AM 40.0744 -75.4611 227° Southwest 369 425 22,000  Level New York Center
Sat 08:50:49 AM 40.0081 -75.5542 227° Southwest 363 418 22,000 -300 Level New York Center
Sat 08:51:51 AM 39.9481 -75.6503 231° Southwest 353 406 21,400 -1,082 Descending New York Center
Sat 08:52:51 AM 39.8897 -75.7436 231° Southwest 347 399 19,800 -1,220 Descending New York Center
Sat 08:53:49 AM 39.8208 -75.8442 228° Southwest 342 394 19,000 -407 Descending New York Center
Sat 08:54:49 AM 39.7697 -75.9214 229° Southwest 327 376 19,000 -950 Level New York Center
Sat 08:55:49 AM 39.7136 -76.0092 230° Southwest 321 369 17,100 -1,877 Descending New York Center
Sat 08:58:04 AM 39.5833 -76.2000 228° Southwest 300 345 12,900 -1,569 Descending Potomac TRACON
Sat 08:59:04 AM 39.5333 -76.2833 232° Southwest 296 341 12,000 -474 Descending Potomac TRACON
Sat 08:59:58 AM 39.4833 -76.3667 232° Southwest 282 325 12,000  Level Potomac TRACON
Sat 09:00:58 AM 39.4333 -76.4333 226° Southwest 285 328 12,000  Level Potomac TRACON
Sat 09:01:58 AM 39.3667 -76.5000 218° Southwest 289 333 12,000 -500 Level Potomac TRACON
Sat 09:02:58 AM 39.3000 -76.5500 210° Southwest 286 329 11,000 -1,000 Descending Potomac TRACON
Sat 09:03:58 AM 39.2333 -76.6000 210° Southwest 275 316 10,000 -522 Descending Potomac TRACON
Sat 09:04:53 AM 39.1833 -76.6500 218° Southwest 278 320 10,000  Level Potomac TRACON
Sat 09:05:53 AM 39.1167 -76.7167 218° Southwest 288 331 10,000 -600 Level Potomac TRACON
Sat 09:06:53 AM 39.0667 -76.8000 232° Southwest 283 326 8,800 -1,000 Descending Potomac TRACON
Sat 09:07:53 AM 39.0167 -76.8667 226° Southwest 251 289 8,000 -400 Descending Potomac TRACON
Sat 09:08:53 AM 38.9833 -76.9333 237° Southwest 219 252 8,000 -684 Level Potomac TRACON
Sat 09:09:47 AM 39.0000 -77.0000 288° West 229 264 6,700 -1,053 Descending Potomac TRACON
Sat 09:10:47 AM 39.0167 -77.0667 288° West 204 235 6,000 -368 Descending Potomac TRACON
Sat 09:11:41 AM 39.0500 -77.1167 311° West 199 229 6,000 -421 Level Potomac TRACON
Sat 09:12:41 AM 39.0833 -77.1667 311° West 197 227 5,200 -500 Descending Potomac TRACON
Sat 09:13:41 AM 39.1333 -77.2167 322° Northwest 201 231 5,000 -104 Descending Potomac TRACON
Sat 09:14:36 AM 39.1167 -77.2667 247° West 185 213 5,000  Level Potomac TRACON
Sat 09:15:36 AM 39.0667 -77.2833 195° South 183 211 5,000  Level Potomac TRACON
Sat 09:16:36 AM 39.0333 -77.2500 142° Southeast 178 205 5,000 -579 Level Potomac TRACON
Sat 09:17:30 AM 39.0000 -77.2000 131° Southeast 182 209 3,900 -1,158 Descending Potomac TRACON
Sat 09:18:30 AM 38.9667 -77.1500 131° Southeast 176 203 2,800 -1,100 Descending Potomac TRACON

Login

Don't have an account? Register now (free) for customized features, flight alerts, and more!